createdAt,value
2019-05-12T00:00:08.100Z,2.30
2019-05-12T00:01:09.138Z,2.00
2019-05-12T00:02:07.777Z,2.20
2019-05-12T00:03:08.465Z,1.80
2019-05-12T00:04:08.223Z,1.70
2019-05-12T00:05:08.823Z,2.10
2019-05-12T00:06:08.768Z,1.90
2019-05-12T00:07:08.768Z,1.80
2019-05-12T00:08:08.326Z,1.80
2019-05-12T00:09:08.395Z,1.80
2019-05-12T00:10:08.589Z,1.70
2019-05-12T00:11:08.936Z,1.80
2019-05-12T00:12:08.241Z,1.80
2019-05-12T00:13:08.428Z,1.90
2019-05-12T00:14:08.694Z,1.90
2019-05-12T00:15:08.188Z,2.00
2019-05-12T00:16:08.805Z,2.10
2019-05-12T00:17:08.191Z,2.00
2019-05-12T00:18:09.191Z,2.00
2019-05-12T00:19:09.214Z,1.80
2019-05-12T00:20:08.523Z,1.80
2019-05-12T00:21:08.772Z,2.00
2019-05-12T00:22:07.733Z,2.20
2019-05-12T00:23:23.160Z,1.60
2019-05-12T00:24:08.461Z,1.80
2019-05-12T00:25:08.762Z,1.80
2019-05-12T00:26:07.958Z,1.70
2019-05-12T00:27:08.514Z,2.00
2019-05-12T00:28:07.904Z,2.00
2019-05-12T00:29:07.780Z,2.00
2019-05-12T00:30:09.963Z,1.80
2019-05-12T00:31:08.356Z,1.70
2019-05-12T00:32:08.584Z,1.90
2019-05-12T00:33:09.362Z,2.10
2019-05-12T00:34:07.820Z,1.90
2019-05-12T00:35:08.026Z,2.20
2019-05-12T00:36:08.020Z,1.90
2019-05-12T00:37:08.288Z,2.20
2019-05-12T00:38:09.155Z,1.90
2019-05-12T00:39:08.599Z,1.90
2019-05-12T00:40:08.878Z,1.90
2019-05-12T00:41:08.772Z,1.80
2019-05-12T00:42:07.835Z,2.10
2019-05-12T00:43:08.671Z,2.20
2019-05-12T00:44:08.842Z,1.90
2019-05-12T00:45:08.105Z,2.30
2019-05-12T00:46:07.963Z,2.10
2019-05-12T00:47:08.140Z,1.70
2019-05-12T00:48:09.254Z,2.20
2019-05-12T00:49:08.049Z,2.30
2019-05-12T00:50:08.022Z,2.30
2019-05-12T00:51:07.789Z,2.10
2019-05-12T00:52:08.082Z,2.00
2019-05-12T00:53:09.169Z,2.20
2019-05-12T00:54:09.221Z,1.80
2019-05-12T00:55:07.886Z,2.10
2019-05-12T00:56:08.439Z,1.90
2019-05-12T00:57:07.797Z,2.00
2019-05-12T00:58:08.194Z,2.20
2019-05-12T00:59:08.360Z,2.00
2019-05-12T01:00:08.736Z,2.00
2019-05-12T01:01:08.178Z,2.10
2019-05-12T01:02:08.015Z,2.00
2019-05-12T01:03:08.634Z,2.10
2019-05-12T01:04:08.811Z,2.20
2019-05-12T01:05:08.615Z,2.60
2019-05-12T01:06:08.476Z,2.00
2019-05-12T01:07:08.643Z,1.70
2019-05-12T01:08:09.069Z,1.80
2019-05-12T01:09:08.827Z,2.00
2019-05-12T01:10:08.623Z,1.60
2019-05-12T01:11:08.810Z,1.90
2019-05-12T01:12:07.969Z,2.10
2019-05-12T01:13:08.599Z,2.20
2019-05-12T01:14:08.575Z,2.10
2019-05-12T01:15:07.490Z,1.90
2019-05-12T01:16:08.076Z,2.00
2019-05-12T01:17:08.415Z,2.40
2019-05-12T01:18:09.473Z,2.10
2019-05-12T01:19:07.977Z,1.80
2019-05-12T01:20:08.918Z,1.90
2019-05-12T01:21:07.736Z,2.10
2019-05-12T01:22:08.077Z,1.90
2019-05-12T01:23:08.557Z,1.90
2019-05-12T01:24:08.891Z,2.50
2019-05-12T01:25:08.701Z,2.50
2019-05-12T01:26:08.821Z,1.70
2019-05-12T01:27:08.627Z,2.20
2019-05-12T01:28:08.128Z,1.80
2019-05-12T01:29:08.426Z,1.80
2019-05-12T01:30:08.728Z,2.50
2019-05-12T01:31:08.556Z,2.30
2019-05-12T01:32:07.955Z,2.50
2019-05-12T01:33:08.646Z,2.00
2019-05-12T01:34:08.127Z,2.00
2019-05-12T01:35:08.119Z,2.00
2019-05-12T01:36:07.989Z,2.50
2019-05-12T01:37:07.982Z,2.10
2019-05-12T01:38:08.007Z,2.00
2019-05-12T01:39:08.234Z,2.00
2019-05-12T01:40:08.856Z,2.00
2019-05-12T01:41:08.707Z,2.40
2019-05-12T01:42:09.013Z,1.90
2019-05-12T01:43:08.629Z,2.10
2019-05-12T01:44:08.600Z,2.30
2019-05-12T01:45:09.005Z,2.00
2019-05-12T01:46:08.070Z,2.10
2019-05-12T01:47:08.365Z,1.80
2019-05-12T01:48:08.809Z,2.40
2019-05-12T01:49:08.273Z,2.50
2019-05-12T01:50:08.789Z,2.10
2019-05-12T01:51:08.356Z,2.00
2019-05-12T01:52:08.588Z,2.40
2019-05-12T01:53:08.144Z,1.80
2019-05-12T01:54:11.638Z,2.20
2019-05-12T01:55:08.170Z,1.70
2019-05-12T01:56:07.852Z,2.00
2019-05-12T01:57:08.093Z,2.20
2019-05-12T01:58:08.298Z,2.40
2019-05-12T01:59:08.190Z,2.10
2019-05-12T02:00:08.049Z,2.00
2019-05-12T02:01:08.245Z,2.20
2019-05-12T02:02:08.482Z,2.40
2019-05-12T02:03:08.697Z,1.70
2019-05-12T02:04:07.732Z,1.80
2019-05-12T02:05:08.506Z,1.90
2019-05-12T02:06:08.429Z,2.20
2019-05-12T02:07:08.346Z,1.70
2019-05-12T02:08:06.326Z,2.10
2019-05-12T02:09:08.066Z,1.90
2019-05-12T02:10:09.109Z,1.90
2019-05-12T02:11:07.927Z,2.00
2019-05-12T02:12:08.191Z,1.90
2019-05-12T02:13:07.940Z,2.30
2019-05-12T02:14:06.297Z,2.20
2019-05-12T02:15:08.162Z,2.50
2019-05-12T02:16:08.210Z,2.00
2019-05-12T02:17:08.686Z,2.00
2019-05-12T02:18:06.214Z,1.90
2019-05-12T02:19:08.767Z,2.10
2019-05-12T02:20:07.714Z,1.90
2019-05-12T02:21:08.285Z,1.90
2019-05-12T02:22:08.321Z,2.40
2019-05-12T02:23:08.593Z,2.10
2019-05-12T02:24:07.794Z,2.10
2019-05-12T02:25:08.117Z,2.40
2019-05-12T02:26:08.277Z,2.10
2019-05-12T02:27:08.173Z,2.20
2019-05-12T02:28:06.101Z,2.60
2019-05-12T02:29:07.893Z,2.30
2019-05-12T02:30:09.758Z,2.40
2019-05-12T02:31:09.254Z,2.30
2019-05-12T02:32:06.061Z,2.50
2019-05-12T02:33:06.051Z,2.30
2019-05-12T02:34:06.077Z,2.10
2019-05-12T02:35:06.091Z,2.10
2019-05-12T02:36:06.026Z,2.50
2019-05-12T02:37:06.033Z,2.30
2019-05-12T02:38:05.992Z,1.90
2019-05-12T02:39:05.984Z,2.00
2019-05-12T02:40:05.966Z,2.30
2019-05-12T02:41:05.964Z,2.20
2019-05-12T02:42:05.948Z,2.90
2019-05-12T02:43:06.084Z,2.30
2019-05-12T02:44:05.946Z,2.30
2019-05-12T02:45:05.937Z,1.90
2019-05-12T02:46:05.905Z,2.10
2019-05-12T02:47:05.897Z,2.10
2019-05-12T02:48:06.030Z,2.50
2019-05-12T02:49:05.871Z,2.30
2019-05-12T02:50:05.882Z,2.60
2019-05-12T02:51:05.860Z,2.50
2019-05-12T02:52:05.842Z,2.10
2019-05-12T02:53:05.998Z,2.30
2019-05-12T02:54:05.965Z,1.90
2019-05-12T02:55:06.539Z,2.30
2019-05-12T02:56:05.808Z,2.30
2019-05-12T02:57:05.785Z,2.30
2019-05-12T02:58:06.438Z,2.40
2019-05-12T02:59:05.860Z,2.30
2019-05-12T03:00:05.764Z,2.10
2019-05-12T03:01:05.812Z,2.70
2019-05-12T03:02:05.741Z,2.50
2019-05-12T03:03:05.754Z,2.10
2019-05-12T03:04:06.145Z,2.00
2019-05-12T03:05:05.864Z,2.30
2019-05-12T03:06:05.758Z,2.20
2019-05-12T03:07:06.717Z,2.00
2019-05-12T03:08:05.682Z,2.20
2019-05-12T03:09:05.659Z,2.00
2019-05-12T03:10:05.645Z,2.30
2019-05-12T03:11:06.218Z,1.90
2019-05-12T03:12:06.180Z,2.50
2019-05-12T03:13:05.662Z,2.30
2019-05-12T03:14:05.619Z,2.20
2019-05-12T03:15:05.855Z,2.20
2019-05-12T03:16:05.576Z,2.00
2019-05-12T03:17:05.594Z,1.90
2019-05-12T03:18:06.724Z,2.30
2019-05-12T03:19:05.627Z,2.40
2019-05-12T03:20:05.550Z,1.80
2019-05-12T03:21:06.020Z,2.30
2019-05-12T03:22:05.517Z,1.90
2019-05-12T03:23:06.511Z,2.20
2019-05-12T03:24:06.501Z,1.90
2019-05-12T03:25:15.503Z,2.10
2019-05-12T03:26:06.477Z,2.20
2019-05-12T03:27:05.462Z,2.00
2019-05-12T03:28:08.852Z,1.90
2019-05-12T03:29:06.126Z,2.30
2019-05-12T03:30:11.285Z,2.40
2019-05-12T03:31:08.258Z,2.70
2019-05-12T03:32:08.389Z,2.40
2019-05-12T03:33:09.614Z,2.00
2019-05-12T03:34:09.164Z,2.40
2019-05-12T03:35:08.871Z,2.10
2019-05-12T03:36:08.866Z,2.10
2019-05-12T03:37:07.812Z,2.00
2019-05-12T03:38:05.364Z,2.40
2019-05-12T03:39:05.334Z,2.10
2019-05-12T03:40:05.639Z,2.40
2019-05-12T03:41:05.611Z,2.10
2019-05-12T03:42:05.399Z,2.50
2019-05-12T03:43:05.797Z,2.50
2019-05-12T03:44:05.409Z,2.20
2019-05-12T03:45:05.331Z,2.30
2019-05-12T03:46:05.577Z,2.30
2019-05-12T03:47:05.337Z,2.10
2019-05-12T03:48:05.241Z,2.20
2019-05-12T03:49:05.698Z,2.00
2019-05-12T03:50:05.213Z,2.50
2019-05-12T03:51:05.818Z,2.20
2019-05-12T03:52:05.418Z,2.00
2019-05-12T03:53:10.283Z,2.30
2019-05-12T03:54:06.195Z,1.80
2019-05-12T03:55:05.737Z,2.20
2019-05-12T03:56:05.162Z,2.40
2019-05-12T03:57:05.138Z,1.80
2019-05-12T03:58:05.124Z,2.00
2019-05-12T03:59:05.481Z,2.10
2019-05-12T04:00:05.512Z,2.00
2019-05-12T04:01:05.089Z,2.10
2019-05-12T04:02:05.105Z,1.90
2019-05-12T04:03:05.233Z,2.50
2019-05-12T04:04:05.516Z,1.90
2019-05-12T04:05:05.468Z,1.80
2019-05-12T04:06:05.054Z,2.10
2019-05-12T04:07:05.346Z,2.00
2019-05-12T04:08:05.929Z,2.20
2019-05-12T04:09:05.010Z,2.10
2019-05-12T04:10:05.434Z,2.40
2019-05-12T04:11:05.540Z,2.30
2019-05-12T04:12:05.444Z,2.00
2019-05-12T04:13:05.057Z,2.10
2019-05-12T04:14:05.606Z,1.80
2019-05-12T04:15:05.405Z,1.90
2019-05-12T04:16:05.195Z,1.80
2019-05-12T04:17:05.089Z,1.90
2019-05-12T04:18:06.143Z,2.20
2019-05-12T04:19:05.639Z,1.90
2019-05-12T04:20:05.055Z,2.20
2019-05-12T04:21:05.722Z,2.10
2019-05-12T04:22:05.688Z,2.00
2019-05-12T04:23:06.417Z,1.50
2019-05-12T04:24:05.911Z,2.00
2019-05-12T04:25:06.162Z,2.30
2019-05-12T04:26:11.322Z,1.70
2019-05-12T04:27:05.869Z,2.00
2019-05-12T04:28:05.066Z,2.00
2019-05-12T04:29:05.375Z,1.70
2019-05-12T04:30:05.600Z,1.80
2019-05-12T04:31:05.602Z,2.00
2019-05-12T04:32:05.206Z,2.10
2019-05-12T04:33:05.306Z,1.80
2019-05-12T04:34:05.473Z,2.60
2019-05-12T04:35:05.034Z,1.60
2019-05-12T04:36:05.587Z,2.00
2019-05-12T04:37:04.746Z,2.20
2019-05-12T04:38:05.206Z,1.90
2019-05-12T04:39:04.683Z,1.80
2019-05-12T04:40:05.605Z,1.60
2019-05-12T04:41:05.783Z,1.80
2019-05-12T04:42:05.369Z,2.90
2019-05-12T04:43:06.215Z,2.60
2019-05-12T04:44:05.885Z,2.20
2019-05-12T04:45:04.802Z,2.10
2019-05-12T04:46:05.216Z,2.10
2019-05-12T04:47:05.510Z,2.00
2019-05-12T04:48:05.644Z,2.20
2019-05-12T04:49:05.498Z,1.60
2019-05-12T04:50:05.724Z,1.70
2019-05-12T04:51:05.089Z,2.20
2019-05-12T04:52:05.379Z,1.90
2019-05-12T04:53:05.991Z,1.90
2019-05-12T04:54:05.693Z,1.90
2019-05-12T04:55:04.943Z,1.70
2019-05-12T04:56:14.736Z,2.00
2019-05-12T04:57:05.481Z,1.90
2019-05-12T04:58:04.795Z,1.60
2019-05-12T04:59:05.200Z,1.70
2019-05-12T05:00:05.236Z,1.60
2019-05-12T05:01:06.316Z,2.40
2019-05-12T05:02:05.442Z,1.50
2019-05-12T05:03:05.230Z,1.80
2019-05-12T05:04:05.371Z,1.90
2019-05-12T05:05:05.341Z,1.50
2019-05-12T05:06:04.647Z,2.10
2019-05-12T05:07:04.584Z,1.90
2019-05-12T05:08:04.719Z,1.60
2019-05-12T05:09:05.179Z,1.70
2019-05-12T05:10:04.794Z,1.50
2019-05-12T05:11:04.325Z,1.50
2019-05-12T05:12:04.715Z,1.50
2019-05-12T05:13:05.505Z,1.30
2019-05-12T05:14:04.482Z,1.70
2019-05-12T05:15:05.409Z,2.00
2019-05-12T05:16:05.421Z,1.70
2019-05-12T05:17:05.594Z,1.80
2019-05-12T05:18:06.331Z,1.60
2019-05-12T05:19:04.241Z,1.60
2019-05-12T05:20:04.277Z,1.50
2019-05-12T05:21:04.772Z,1.80
2019-05-12T05:22:04.407Z,1.50
2019-05-12T05:23:04.353Z,1.90
2019-05-12T05:24:04.211Z,1.80
2019-05-12T05:25:04.374Z,2.00
2019-05-12T05:26:04.163Z,1.80
2019-05-12T05:27:04.436Z,1.70
2019-05-12T05:28:04.330Z,1.60
2019-05-12T05:29:04.478Z,1.50
2019-05-12T05:30:04.242Z,1.80
2019-05-12T05:31:04.094Z,1.40
2019-05-12T05:32:04.098Z,1.90
2019-05-12T05:33:04.916Z,1.60
2019-05-12T05:34:04.929Z,1.70
2019-05-12T05:35:07.538Z,1.50
2019-05-12T05:36:04.054Z,1.70
2019-05-12T05:37:05.236Z,1.80
2019-05-12T05:38:04.571Z,1.90
2019-05-12T05:39:04.405Z,2.10
2019-05-12T05:40:04.149Z,1.70
2019-05-12T05:41:05.809Z,1.70
2019-05-12T05:42:04.986Z,2.20
2019-05-12T05:43:12.644Z,1.80
2019-05-12T05:44:04.958Z,1.50
2019-05-12T05:45:04.843Z,1.70
2019-05-12T05:46:07.893Z,1.70
2019-05-12T05:47:04.360Z,1.60
2019-05-12T05:48:05.527Z,1.50
2019-05-12T05:49:04.913Z,1.50
2019-05-12T05:50:04.768Z,1.50
2019-05-12T05:51:05.677Z,1.70
2019-05-12T05:52:03.868Z,1.80
2019-05-12T05:53:04.296Z,1.80
2019-05-12T05:54:04.122Z,1.50
2019-05-12T05:55:05.787Z,1.50
2019-05-12T05:56:04.835Z,1.70
2019-05-12T05:57:06.121Z,1.50
2019-05-12T05:58:08.518Z,1.70
2019-05-12T05:59:04.842Z,1.90
2019-05-12T06:00:07.151Z,1.60
2019-05-12T06:01:08.063Z,1.60
2019-05-12T06:02:04.949Z,2.00
2019-05-12T06:03:05.397Z,1.60
2019-05-12T06:04:08.343Z,1.80
2019-05-12T06:05:04.775Z,1.60
2019-05-12T06:06:10.357Z,1.80
2019-05-12T06:07:04.707Z,1.50
2019-05-12T06:08:04.327Z,1.70
2019-05-12T06:09:03.794Z,1.50
2019-05-12T06:10:04.172Z,1.50
2019-05-12T06:11:04.843Z,1.90
2019-05-12T06:12:05.157Z,1.60
2019-05-12T06:13:04.659Z,1.70
2019-05-12T06:14:11.412Z,1.90
2019-05-12T06:15:04.652Z,1.60
2019-05-12T06:16:04.435Z,1.60
2019-05-12T06:17:04.293Z,2.00
2019-05-12T06:18:03.958Z,1.40
2019-05-12T06:19:03.664Z,2.00
2019-05-12T06:20:04.465Z,1.50
2019-05-12T06:21:03.639Z,2.00
2019-05-12T06:22:04.043Z,1.50
2019-05-12T06:23:04.324Z,1.60
2019-05-12T06:24:03.763Z,1.70
2019-05-12T06:25:04.770Z,1.80
2019-05-12T06:26:04.684Z,1.60
2019-05-12T06:27:14.373Z,2.00
2019-05-12T06:28:08.000Z,1.50
2019-05-12T06:29:04.390Z,2.00
2019-05-12T06:30:06.166Z,1.60
2019-05-12T06:31:04.291Z,1.80
2019-05-12T06:32:06.199Z,1.70
2019-05-12T06:33:04.423Z,1.40
2019-05-12T06:34:06.298Z,1.70
2019-05-12T06:35:04.709Z,1.60
2019-05-12T06:36:04.479Z,1.60
2019-05-12T06:37:11.980Z,1.70
2019-05-12T06:38:05.163Z,1.40
2019-05-12T06:39:04.392Z,1.70
2019-05-12T06:40:03.701Z,1.70
2019-05-12T06:41:03.678Z,1.60
2019-05-12T06:42:12.576Z,1.80
2019-05-12T06:43:04.677Z,1.80
2019-05-12T06:44:03.818Z,1.80
2019-05-12T06:45:03.877Z,1.60
2019-05-12T06:46:03.709Z,1.90
2019-05-12T06:47:08.055Z,2.00
2019-05-12T06:48:04.265Z,1.90
2019-05-12T06:49:10.208Z,1.60
2019-05-12T06:50:04.234Z,1.60
2019-05-12T06:51:04.029Z,1.60
2019-05-12T06:52:07.091Z,1.20
2019-05-12T06:53:05.192Z,1.60
2019-05-12T06:54:09.994Z,1.60
2019-05-12T06:55:04.238Z,1.80
2019-05-12T06:56:04.476Z,1.50
2019-05-12T06:57:18.756Z,1.80
2019-05-12T06:58:04.658Z,1.40
2019-05-12T06:59:09.824Z,2.00
2019-05-12T07:00:04.706Z,1.30
2019-05-12T07:01:10.280Z,1.50
2019-05-12T07:02:04.101Z,1.60
2019-05-12T07:03:03.940Z,1.50
2019-05-12T07:04:06.715Z,1.90
2019-05-12T07:05:04.494Z,1.40
2019-05-12T07:06:04.095Z,1.60
2019-05-12T07:07:03.646Z,1.90
2019-05-12T07:08:04.199Z,1.40
2019-05-12T07:09:09.241Z,1.20
2019-05-12T07:10:11.603Z,1.70
2019-05-12T07:11:06.078Z,1.70
2019-05-12T07:12:06.997Z,1.60
2019-05-12T07:13:05.724Z,1.40
2019-05-12T07:14:07.775Z,1.70
2019-05-12T07:15:04.052Z,2.00
2019-05-12T07:16:03.758Z,1.60
2019-05-12T07:17:05.840Z,1.70
2019-05-12T07:18:04.231Z,1.80
2019-05-12T07:19:07.750Z,1.50
2019-05-12T07:20:04.064Z,1.40
2019-05-12T07:21:04.132Z,1.50
2019-05-12T07:22:03.611Z,1.50
2019-05-12T07:23:04.137Z,1.60
2019-05-12T07:24:06.755Z,1.70
2019-05-12T07:25:04.545Z,1.30
2019-05-12T07:26:04.813Z,1.10
2019-05-12T07:27:08.969Z,1.70
2019-05-12T07:28:07.498Z,1.30
2019-05-12T07:29:04.481Z,1.50
2019-05-12T07:30:04.710Z,1.30
2019-05-12T07:31:03.892Z,1.60
2019-05-12T07:32:07.113Z,1.90
2019-05-12T07:33:04.527Z,1.40
2019-05-12T07:34:07.101Z,1.20
2019-05-12T07:35:03.950Z,1.40
2019-05-12T07:36:06.454Z,1.70
2019-05-12T07:37:04.373Z,1.70
2019-05-12T07:38:04.605Z,1.30
2019-05-12T07:39:04.511Z,1.30
2019-05-12T07:40:04.824Z,1.50
2019-05-12T07:41:08.858Z,1.40
2019-05-12T07:42:03.729Z,2.00
2019-05-12T07:43:04.053Z,1.40
2019-05-12T07:44:03.562Z,1.60
2019-05-12T07:45:03.977Z,1.60
2019-05-12T07:46:06.885Z,1.30
2019-05-12T07:47:03.558Z,1.20
2019-05-12T07:48:05.631Z,1.20
2019-05-12T07:49:03.993Z,1.40
2019-05-12T07:50:04.520Z,1.60
2019-05-12T07:51:04.166Z,1.40
2019-05-12T07:52:03.594Z,1.50
2019-05-12T07:53:04.021Z,1.80
2019-05-12T07:54:04.088Z,1.20
2019-05-12T07:55:04.304Z,1.40
2019-05-12T07:56:04.154Z,1.50
2019-05-12T07:57:11.118Z,1.70
2019-05-12T07:58:09.977Z,1.40
2019-05-12T07:59:04.383Z,1.90
2019-05-12T08:00:03.597Z,2.20
2019-05-12T08:01:05.102Z,1.50
2019-05-12T08:02:04.026Z,1.50
2019-05-12T08:03:08.065Z,1.80
2019-05-12T08:04:04.585Z,1.50
2019-05-12T08:05:03.803Z,1.70
2019-05-12T08:06:04.625Z,1.80
2019-05-12T08:07:03.865Z,1.40
2019-05-12T08:08:09.097Z,1.70
2019-05-12T08:09:04.147Z,1.90
2019-05-12T08:10:07.209Z,1.40
2019-05-12T08:11:04.447Z,1.80
2019-05-12T08:12:03.979Z,1.40
2019-05-12T08:13:04.527Z,1.40
2019-05-12T08:14:03.599Z,1.20
2019-05-12T08:15:07.762Z,1.40
2019-05-12T08:16:03.781Z,1.40
2019-05-12T08:17:11.123Z,1.30
2019-05-12T08:18:07.386Z,1.30
2019-05-12T08:19:03.996Z,1.30
2019-05-12T08:20:04.349Z,1.20
2019-05-12T08:21:03.746Z,1.30
2019-05-12T08:22:04.199Z,1.40
2019-05-12T08:23:05.746Z,1.00
2019-05-12T08:24:03.722Z,1.30
2019-05-12T08:25:04.174Z,1.40
2019-05-12T08:26:03.714Z,1.20
2019-05-12T08:27:06.289Z,1.40
2019-05-12T08:28:12.311Z,1.80
2019-05-12T08:29:04.154Z,1.00
2019-05-12T08:30:06.033Z,1.60
2019-05-12T08:31:03.607Z,1.10
2019-05-12T08:32:03.819Z,1.00
2019-05-12T08:33:08.977Z,1.40
2019-05-12T08:34:04.190Z,1.10
2019-05-12T08:35:04.874Z,1.30
2019-05-12T08:36:08.451Z,1.40
2019-05-12T08:37:04.361Z,1.50
2019-05-12T08:38:03.900Z,1.00
2019-05-12T08:39:05.887Z,1.20
2019-05-12T08:40:05.966Z,1.40
2019-05-12T08:41:04.257Z,1.20
2019-05-12T08:42:04.084Z,0.80
2019-05-12T08:43:08.052Z,1.30
2019-05-12T08:44:04.590Z,0.70
2019-05-12T08:45:04.095Z,1.10
2019-05-12T08:46:07.021Z,0.90
2019-05-12T08:47:03.915Z,1.30
2019-05-12T08:48:03.829Z,1.10
2019-05-12T08:49:03.026Z,1.40
2019-05-12T08:50:04.624Z,1.20
2019-05-12T08:51:05.336Z,1.40
2019-05-12T08:52:03.825Z,1.50
2019-05-12T08:53:04.449Z,1.70
2019-05-12T08:54:03.106Z,1.30
2019-05-12T08:55:04.241Z,1.20
2019-05-12T08:56:04.979Z,1.40
2019-05-12T08:57:03.881Z,1.20
2019-05-12T08:58:03.773Z,1.10
2019-05-12T08:59:04.125Z,1.00
2019-05-12T09:00:03.432Z,1.10
2019-05-12T09:01:04.453Z,1.40
2019-05-12T09:02:07.438Z,1.00
2019-05-12T09:03:03.584Z,1.20
2019-05-12T09:04:06.663Z,1.30
2019-05-12T09:05:04.726Z,1.00
2019-05-12T09:06:03.934Z,1.40
2019-05-12T09:07:01.751Z,1.10
2019-05-12T09:08:03.711Z,1.10
2019-05-12T09:09:03.475Z,1.50
2019-05-12T09:10:03.992Z,1.40
2019-05-12T09:11:03.532Z,1.20
2019-05-12T09:12:03.526Z,1.70
2019-05-12T09:13:04.080Z,1.40
2019-05-12T09:14:03.542Z,1.60
2019-05-12T09:15:04.276Z,1.60
2019-05-12T09:16:01.654Z,1.50
2019-05-12T09:17:03.960Z,1.60
2019-05-12T09:18:04.656Z,1.40
2019-05-12T09:19:01.596Z,1.90
2019-05-12T09:20:05.988Z,1.70
2019-05-12T09:21:03.814Z,2.20
2019-05-12T09:22:05.530Z,1.50
2019-05-12T09:23:04.680Z,1.30
2019-05-12T09:24:03.959Z,1.40
2019-05-12T09:25:06.174Z,0.90
2019-05-12T09:26:04.107Z,1.10
2019-05-12T09:27:04.976Z,0.90
2019-05-12T09:28:03.879Z,1.40
2019-05-12T09:29:03.468Z,1.50
2019-05-12T09:30:07.993Z,1.50
2019-05-12T09:31:03.722Z,1.50
2019-05-12T09:32:05.502Z,1.60
2019-05-12T09:33:04.096Z,1.70
2019-05-12T09:34:05.966Z,1.60
2019-05-12T09:35:03.999Z,1.10
2019-05-12T09:36:01.409Z,1.20
2019-05-12T09:37:03.828Z,1.00
2019-05-12T09:38:03.705Z,1.10
2019-05-12T09:39:02.949Z,1.10
2019-05-12T09:40:01.361Z,1.20
2019-05-12T09:41:02.501Z,1.10
2019-05-12T09:42:03.582Z,1.20
2019-05-12T09:43:08.624Z,1.50
2019-05-12T09:44:04.416Z,1.10
2019-05-12T09:45:06.114Z,1.30
2019-05-12T09:46:04.153Z,1.00
2019-05-12T09:47:01.287Z,1.00
2019-05-12T09:48:07.102Z,1.10
2019-05-12T09:49:04.049Z,1.30
2019-05-12T09:50:01.310Z,1.20
2019-05-12T09:51:04.265Z,1.40
2019-05-12T09:52:03.569Z,1.00
2019-05-12T09:53:09.376Z,1.10
2019-05-12T09:54:02.243Z,1.30
2019-05-12T09:55:01.219Z,1.20
2019-05-12T09:56:01.220Z,1.10
2019-05-12T09:57:01.187Z,0.90
2019-05-12T09:58:03.774Z,1.00
2019-05-12T09:59:02.871Z,1.20
2019-05-12T10:00:04.384Z,1.00
2019-05-12T10:01:03.482Z,1.30
2019-05-12T10:02:03.544Z,1.30
2019-05-12T10:03:01.130Z,1.00
2019-05-12T10:04:03.335Z,1.00
2019-05-12T10:05:01.783Z,1.10
2019-05-12T10:06:03.568Z,1.20
2019-05-12T10:07:01.074Z,1.00
2019-05-12T10:08:01.060Z,1.10
2019-05-12T10:09:03.302Z,1.10
2019-05-12T10:10:03.462Z,1.30
2019-05-12T10:11:01.050Z,1.40
2019-05-12T10:12:02.405Z,0.70
2019-05-12T10:13:01.002Z,1.00
2019-05-12T10:14:06.401Z,1.00
2019-05-12T10:15:04.081Z,1.10
2019-05-12T10:16:04.898Z,0.90
2019-05-12T10:17:03.643Z,1.00
2019-05-12T10:18:06.418Z,1.10
2019-05-12T10:19:04.010Z,2.10
2019-05-12T10:20:00.919Z,2.30
2019-05-12T10:21:00.918Z,1.90
2019-05-12T10:22:00.902Z,1.10
2019-05-12T10:23:00.897Z,1.00
2019-05-12T10:24:02.787Z,1.70
2019-05-12T10:25:00.880Z,1.10
2019-05-12T10:26:01.564Z,1.10
2019-05-12T10:27:03.730Z,1.10
2019-05-12T10:28:05.272Z,1.30
2019-05-12T10:29:14.233Z,1.30
2019-05-12T10:30:03.183Z,1.20
2019-05-12T10:31:04.013Z,1.40
2019-05-12T10:32:00.798Z,0.90
2019-05-12T10:33:00.785Z,1.00
2019-05-12T10:34:00.769Z,0.90
2019-05-12T10:35:00.751Z,1.00
2019-05-12T10:36:06.811Z,0.90
2019-05-12T10:37:03.772Z,0.90
2019-05-12T10:38:06.193Z,1.30
2019-05-12T10:39:01.731Z,1.10
2019-05-12T10:40:00.729Z,0.90
2019-05-12T10:41:00.721Z,0.80
2019-05-12T10:42:00.725Z,1.20
2019-05-12T10:43:00.806Z,1.20
2019-05-12T10:44:00.674Z,1.00
2019-05-12T10:45:00.663Z,1.00
2019-05-12T10:46:00.699Z,1.10
2019-05-12T10:47:00.677Z,1.20
2019-05-12T10:48:00.672Z,0.90
2019-05-12T10:49:00.627Z,1.00
2019-05-12T10:50:00.611Z,1.00
2019-05-12T10:51:00.612Z,1.50
2019-05-12T10:52:00.574Z,0.80
2019-05-12T10:53:00.580Z,1.10
2019-05-12T10:54:07.739Z,1.10
2019-05-12T10:55:01.555Z,1.10
2019-05-12T10:56:00.602Z,1.30
2019-05-12T10:57:00.565Z,0.80
2019-05-12T10:58:01.777Z,0.80
2019-05-12T10:59:00.546Z,0.80
2019-05-12T11:00:00.569Z,1.20
2019-05-12T11:01:05.392Z,1.10
2019-05-12T11:02:03.377Z,0.90
2019-05-12T11:03:01.521Z,1.00
2019-05-12T11:04:03.816Z,1.00
2019-05-12T11:05:00.481Z,0.90
2019-05-12T11:06:02.507Z,0.70
2019-05-12T11:07:00.434Z,1.10
2019-05-12T11:08:05.618Z,0.70
2019-05-12T11:09:03.607Z,1.00
2019-05-12T11:10:05.177Z,0.90
2019-05-12T11:11:01.435Z,0.80
2019-05-12T11:12:00.391Z,1.20
2019-05-12T11:13:07.543Z,1.00
2019-05-12T11:14:03.813Z,1.20
2019-05-12T11:15:01.365Z,1.00
2019-05-12T11:16:03.639Z,1.20
2019-05-12T11:17:02.257Z,1.30
2019-05-12T11:18:01.295Z,1.10
2019-05-12T11:19:05.640Z,1.30
2019-05-12T11:20:03.967Z,1.00
2019-05-12T11:21:00.301Z,0.80
2019-05-12T11:22:00.309Z,0.90
2019-05-12T11:23:00.247Z,1.00
2019-05-12T11:24:00.229Z,1.30
2019-05-12T11:25:00.216Z,1.20
2019-05-12T11:26:00.215Z,1.20
2019-05-12T11:27:00.187Z,1.70
2019-05-12T11:28:00.258Z,1.80
2019-05-12T11:29:00.188Z,1.50
2019-05-12T11:30:00.196Z,1.50
2019-05-12T11:31:00.147Z,1.50
2019-05-12T11:32:00.165Z,1.40
2019-05-12T11:33:00.137Z,1.30
2019-05-12T11:34:00.109Z,1.40
2019-05-12T11:35:00.105Z,1.60
2019-05-12T11:36:00.084Z,1.30
2019-05-12T11:37:00.080Z,0.80
2019-05-12T11:38:00.087Z,1.70
2019-05-12T11:39:00.050Z,1.40
2019-05-12T11:40:00.086Z,1.80
2019-05-12T11:41:00.053Z,1.30
2019-05-12T11:42:00.049Z,1.50
2019-05-12T11:43:03.512Z,1.20
2019-05-12T11:44:00.008Z,1.50
2019-05-12T11:45:00.082Z,1.10
2019-05-12T11:46:00.040Z,0.80
2019-05-12T11:46:59.975Z,0.90
2019-05-12T11:48:07.929Z,1.00
2019-05-12T11:49:00.987Z,0.90
2019-05-12T11:50:05.058Z,1.20
2019-05-12T11:51:00.989Z,1.00
2019-05-12T11:52:01.103Z,0.90
2019-05-12T11:53:01.012Z,0.90
2019-05-12T11:54:03.492Z,0.90
2019-05-12T11:55:00.879Z,0.90
2019-05-12T11:56:02.290Z,1.20
2019-05-12T11:57:01.001Z,0.80
2019-05-12T11:58:06.778Z,1.10
2019-05-12T11:59:00.859Z,1.00
2019-05-12T12:00:02.236Z,1.10
2019-05-12T12:01:04.744Z,0.80
2019-05-12T12:02:00.872Z,0.80
2019-05-12T12:03:03.877Z,1.30
2019-05-12T12:04:00.789Z,0.90
2019-05-12T12:04:59.784Z,0.80
2019-05-12T12:05:59.877Z,0.90
2019-05-12T12:06:59.759Z,0.90
2019-05-12T12:07:59.738Z,1.20
2019-05-12T12:09:00.108Z,1.50
2019-05-12T12:09:59.788Z,1.80
2019-05-12T12:10:59.746Z,2.00
2019-05-12T12:12:03.244Z,1.40
2019-05-12T12:13:00.745Z,1.30
2019-05-12T12:14:00.407Z,1.30
2019-05-12T12:15:00.667Z,1.10
2019-05-12T12:16:00.687Z,1.40
2019-05-12T12:17:00.674Z,1.20
2019-05-12T12:18:03.993Z,1.10
2019-05-12T12:19:02.780Z,1.20
2019-05-12T12:19:59.654Z,1.30
2019-05-12T12:21:04.080Z,1.00
2019-05-12T12:22:00.624Z,1.00
2019-05-12T12:23:00.135Z,1.00
2019-05-12T12:24:00.575Z,1.00
2019-05-12T12:25:02.919Z,0.90
2019-05-12T12:26:00.568Z,1.00
2019-05-12T12:26:59.540Z,1.20
2019-05-12T12:27:59.526Z,1.00
2019-05-12T12:28:59.556Z,1.20
2019-05-12T12:30:15.269Z,1.00
2019-05-12T12:31:03.083Z,0.80
2019-05-12T12:31:59.482Z,1.20
2019-05-12T12:33:00.436Z,1.00
2019-05-12T12:33:59.472Z,1.00
2019-05-12T12:35:00.936Z,0.80
2019-05-12T12:36:00.837Z,1.00
2019-05-12T12:36:59.434Z,0.70
2019-05-12T12:37:59.406Z,1.00
2019-05-12T12:38:59.405Z,1.20
2019-05-12T12:39:59.404Z,1.00
2019-05-12T12:40:59.391Z,1.00
2019-05-12T12:42:00.666Z,1.30
2019-05-12T12:42:59.370Z,1.00
2019-05-12T12:43:59.335Z,0.90
2019-05-12T12:45:00.602Z,1.10
2019-05-12T12:46:00.404Z,0.80
2019-05-12T12:47:01.654Z,1.00
2019-05-12T12:47:59.295Z,1.10
2019-05-12T12:49:00.412Z,0.90
2019-05-12T12:50:00.303Z,0.60
2019-05-12T12:50:59.309Z,1.20
2019-05-12T12:51:59.383Z,0.90
2019-05-12T12:52:59.268Z,1.10
2019-05-12T12:53:59.256Z,0.80
2019-05-12T12:55:04.022Z,0.70
2019-05-12T12:56:00.213Z,0.70
2019-05-12T12:57:04.798Z,0.80
2019-05-12T12:58:00.200Z,0.90
2019-05-12T12:59:01.869Z,0.80
2019-05-12T13:00:00.164Z,0.80
2019-05-12T13:00:59.171Z,0.70
2019-05-12T13:02:04.626Z,0.80
2019-05-12T13:03:00.128Z,0.90
2019-05-12T13:04:04.126Z,0.70
2019-05-12T13:05:00.107Z,0.70
2019-05-12T13:05:59.122Z,1.00
2019-05-12T13:06:59.100Z,1.10
2019-05-12T13:07:59.076Z,1.10
2019-05-12T13:08:59.068Z,1.00
2019-05-12T13:10:07.407Z,1.20
2019-05-12T13:11:00.051Z,1.00
2019-05-12T13:11:59.033Z,1.40
2019-05-12T13:13:00.952Z,1.00
2019-05-12T13:13:59.013Z,1.20
2019-05-12T13:14:59.009Z,1.00
2019-05-12T13:15:58.997Z,1.00
2019-05-12T13:16:59.001Z,1.10
2019-05-12T13:17:58.983Z,1.10